Time;durP1;ratioP1;P1;durP2;ratioP2;P2;SDS_P1;SDS_P2;PMS_P1;PMS_P2;Temp;Humidity;BMP_temperature;BMP_pressure;BME280_temperature;BME280_humidity;BME280_pressure;Samples;Min_cycle;Max_cycle;Signal;HPM_P1;HPM_P2
2022/06/03 00:02:53;;;;;;;5.00;2.97;;;17.60;99.90;;;;;;4967246;28;20032;-78
2022/06/03 00:05:44;;;;;;;4.32;3.08;;;17.50;99.90;;;;;;4980409;28;20018;-78
2022/06/03 00:08:37;;;;;;;3.33;2.75;;;17.50;99.90;;;;;;4979287;28;20022;-77
2022/06/03 00:11:18;;;;;;;4.20;3.40;;;17.50;99.90;;;;;;4973887;28;20574;-80
2022/06/03 00:14:21;;;;;;;4.25;2.80;;;17.40;99.90;;;;;;4975341;28;20060;-79
2022/06/03 00:17:22;;;;;;;4.88;3.10;;;17.40;99.90;;;;;;4977156;28;20406;-79
2022/06/03 00:20:02;;;;;;;5.28;2.88;;;17.40;99.90;;;;;;4976943;28;20037;-79
2022/06/03 00:22:56;;;;;;;8.05;3.03;;;17.40;99.90;;;;;;4979517;28;20046;-78
2022/06/03 00:25:56;;;;;;;5.53;2.95;;;17.40;99.90;;;;;;4972411;28;20050;-80
2022/06/03 00:28:46;;;;;;;4.32;2.95;;;17.30;99.90;;;;;;4974633;28;20053;-79
2022/06/03 00:31:24;;;;;;;7.60;2.83;;;17.30;99.90;;;;;;4981375;28;20034;-80
2022/06/03 00:34:20;;;;;;;4.53;2.80;;;17.20;99.90;;;;;;4973867;28;20561;-79
2022/06/03 00:36:58;;;;;;;3.97;2.70;;;17.20;99.90;;;;;;4990562;28;20027;-79
2022/06/03 00:39:27;;;;;;;5.18;2.97;;;17.20;99.90;;;;;;4989511;28;20042;-79
2022/06/03 00:41:58;;;;;;;4.22;3.00;;;17.20;99.90;;;;;;4979688;28;20387;-78
2022/06/03 00:44:42;;;;;;;4.57;2.60;;;17.20;99.90;;;;;;4986758;28;20035;-77
2022/06/03 00:47:53;;;;;;;5.78;2.85;;;17.20;99.90;;;;;;4971546;28;20183;-79
2022/06/03 00:50:58;;;;;;;3.97;2.63;;;17.10;99.90;;;;;;4965395;29;20035;-78
2022/06/03 00:53:56;;;;;;;3.40;2.85;;;17.10;99.90;;;;;;4935533;29;20036;-79
2022/06/03 00:56:31;;;;;;;4.63;2.53;;;17.00;99.90;;;;;;4915702;29;20111;-78
2022/06/03 00:59:17;;;;;;;3.55;2.50;;;16.90;99.90;;;;;;4976768;28;20091;-79
2022/06/03 01:02:00;;;;;;;4.93;2.60;;;16.90;99.90;;;;;;4961956;28;20038;-78
2022/06/03 01:04:30;;;;;;;3.53;2.38;;;16.90;99.90;;;;;;4980273;28;20034;-79
2022/06/03 01:07:02;;;;;;;3.95;2.65;;;16.90;99.90;;;;;;4986492;28;20023;-78
2022/06/03 01:09:28;;;;;;;3.70;2.78;;;16.80;99.90;;;;;;4985373;28;20035;-78
2022/06/03 01:12:00;;;;;;;7.07;2.47;;;16.80;99.90;;;;;;4984515;28;20114;-80
2022/06/03 01:14:58;;;;;;;10.18;2.67;;;16.80;99.90;;;;;;4976451;28;20031;-79
2022/06/03 01:17:49;;;;;;;3.78;2.55;;;16.80;99.90;;;;;;4970164;28;20030;-79
2022/06/03 01:20:48;;;;;;;6.57;2.45;;;16.70;99.90;;;;;;4961754;29;20070;-78
2022/06/03 01:23:52;;;;;;;8.05;2.70;;;16.70;99.90;;;;;;4977975;28;20117;-79
2022/06/03 01:26:53;;;;;;;4.18;2.50;;;16.70;99.90;;;;;;4979335;28;20089;-79
2022/06/03 01:29:58;;;;;;;3.22;2.72;;;16.60;99.90;;;;;;4960853;28;20035;-79
2022/06/03 01:32:30;;;;;;;4.30;2.75;;;16.60;99.90;;;;;;4942936;29;20034;-79
2022/06/03 01:35:28;;;;;;;3.25;2.83;;;16.60;99.90;;;;;;4962403;28;20130;-78
2022/06/03 01:38:04;;;;;;;7.22;2.60;;;16.60;99.90;;;;;;4959465;28;20388;-80
2022/06/03 01:40:32;;;;;;;4.65;2.50;;;16.50;99.90;;;;;;4978970;28;20117;-80
2022/06/03 01:43:14;;;;;;;4.65;2.47;;;16.50;99.90;;;;;;4983411;28;20031;-79
2022/06/03 01:46:01;;;;;;;5.32;2.78;;;16.50;99.90;;;;;;4980608;28;20109;-79
2022/06/03 01:48:52;;;;;;;3.58;2.80;;;16.40;99.90;;;;;;5213360;23;20055;-90
2022/06/03 01:51:37;;;;;;;3.10;2.58;;;16.40;99.90;;;;;;4999105;28;20043;-91
2022/06/03 01:54:31;;;;;;;4.28;2.92;;;16.40;99.90;;;;;;4999774;28;20070;-92
2022/06/03 01:57:12;;;;;;;4.68;2.50;;;16.40;99.90;;;;;;4996836;28;20011;-90
2022/06/03 01:59:38;;;;;;;4.95;2.75;;;16.30;99.90;;;;;;5264594;23;21283;-87
2022/06/03 02:02:16;;;;;;;4.55;2.65;;;16.30;99.90;;;;;;5322002;23;20043;-91
2022/06/03 02:04:51;;;;;;;4.85;2.70;;;16.30;99.90;;;;;;4979765;28;20034;-90
2022/06/03 02:07:26;;;;;;;5.22;2.47;;;16.30;99.90;;;;;;4978533;29;20047;-90
2022/06/03 02:10:20;;;;;;;4.03;2.10;;;16.30;99.90;;;;;;4952343;29;20020;-88
2022/06/03 02:13:11;;;;;;;5.78;2.30;;;16.20;99.90;;;;;;4958141;29;20030;-89
2022/06/03 02:16:01;;;;;;;3.83;2.53;;;16.20;99.90;;;;;;4971601;28;20047;-91
2022/06/03 02:19:04;;;;;;;6.00;2.72;;;16.20;99.90;;;;;;4980449;28;20028;-91
2022/06/03 02:21:52;;;;;;;4.68;2.45;;;16.20;99.90;;;;;;4968837;28;20027;-86
2022/06/03 02:24:26;;;;;;;4.00;2.83;;;16.30;99.90;;;;;;4978568;28;20046;-91
2022/06/03 02:27:29;;;;;;;3.60;2.67;;;16.30;99.90;;;;;;4975286;29;20055;-89
2022/06/03 02:33:21;;;;;;;3.03;2.30;;;16.10;99.90;;;;;;4975066;29;20019;-89
2022/06/03 02:35:47;;;;;;;4.13;2.30;;;16.10;99.90;;;;;;4976198;29;20039;-90
2022/06/03 02:38:13;;;;;;;4.13;2.55;;;16.10;99.90;;;;;;4949660;29;20031;-89
2022/06/03 02:41:04;;;;;;;3.63;2.55;;;16.10;99.90;;;;;;4965168;29;20035;-90
2022/06/03 02:44:11;;;;;;;11.48;2.60;;;16.00;99.90;;;;;;4966011;29;20046;-90
2022/06/03 02:47:14;;;;;;;3.72;2.85;;;16.00;99.90;;;;;;4905705;29;20040;-90
2022/06/03 02:50:19;;;;;;;8.40;2.90;;;16.00;99.90;;;;;;4948268;29;20070;-89
2022/06/03 02:52:55;;;;;;;6.00;3.10;;;16.00;99.90;;;;;;4947106;29;20040;-90
2022/06/03 02:55:39;;;;;;;5.07;2.50;;;16.00;99.90;;;;;;4960160;29;20019;-91
2022/06/03 02:58:14;;;;;;;4.60;2.60;;;16.00;99.90;;;;;;4965259;29;20034;-89
2022/06/03 03:01:10;;;;;;;4.88;2.58;;;16.00;99.90;;;;;;4962006;29;20024;-90
2022/06/03 03:03:43;;;;;;;4.00;2.50;;;16.00;99.90;;;;;;4946529;29;20035;-89
2022/06/03 03:06:14;;;;;;;3.55;2.67;;;16.00;99.90;;;;;;4948262;29;20039;-90
2022/06/03 03:09:16;;;;;;;2.38;2.10;;;16.10;99.90;;;;;;4952424;29;20067;-91
2022/06/03 03:11:58;;;;;;;3.70;2.50;;;16.10;99.90;;;;;;4951606;29;20050;-89
2022/06/03 03:14:53;;;;;;;4.70;3.03;;;16.10;99.90;;;;;;4952805;29;20515;-90
2022/06/03 03:17:25;;;;;;;6.75;3.35;;;16.10;99.90;;;;;;4947310;29;20032;-90
2022/06/03 03:20:49;;;;;;;4.72;3.08;;;16.10;99.90;;;;;;4955864;29;20028;-89
2022/06/03 03:23:45;;;;;;;2.97;2.50;;;16.20;99.90;;;;;;4877134;29;20111;-89
2022/06/03 03:26:39;;;;;;;5.53;2.40;;;16.20;99.90;;;;;;4878479;29;20037;-88
2022/06/03 03:29:10;;;;;;;3.80;2.90;;;16.20;99.90;;;;;;4966601;28;20044;-89
2022/06/03 03:31:51;;;;;;;4.32;2.80;;;16.30;99.90;;;;;;4980541;28;20035;-90
2022/06/03 03:34:45;;;;;;;5.57;2.65;;;16.30;99.90;;;;;;4945140;29;20059;-89
2022/06/03 03:37:29;;;;;;;4.25;2.67;;;16.30;99.90;;;;;;4946128;29;20027;-88
2022/06/03 03:40:32;;;;;;;5.27;2.70;;;16.30;99.90;;;;;;4951363;29;20031;-82
2022/06/03 03:43:23;;;;;;;5.07;2.40;;;16.30;99.90;;;;;;4970551;29;20027;-83
2022/06/03 03:46:05;;;;;;;4.13;2.95;;;16.30;99.90;;;;;;4971679;29;20035;-84
2022/06/03 03:48:53;;;;;;;3.75;2.67;;;16.30;99.90;;;;;;4970340;29;20059;-81
2022/06/03 03:51:57;;;;;;;6.50;3.20;;;16.20;99.90;;;;;;4960067;29;20027;-83
2022/06/03 03:54:50;;;;;;;4.03;2.67;;;16.20;99.90;;;;;;4934649;28;20051;-83
2022/06/03 03:57:28;;;;;;;7.15;3.05;;;16.20;99.90;;;;;;4942614;29;20045;-84
2022/06/03 04:00:23;;;;;;;4.43;2.78;;;16.20;99.90;;;;;;4947190;29;20050;-84
2022/06/03 04:02:55;;;;;;;5.18;3.38;;;16.20;99.90;;;;;;4967141;29;20105;-81
2022/06/03 04:05:39;;;;;;;3.75;2.95;;;16.20;99.90;;;;;;4971723;28;20037;-80
2022/06/03 04:08:24;;;;;;;4.78;2.65;;;16.20;99.90;;;;;;4960666;29;20117;-84
2022/06/03 04:11:08;;;;;;;4.85;3.05;;;16.20;99.90;;;;;;4966879;29;20476;-83
2022/06/03 04:13:46;;;;;;;4.47;2.67;;;16.20;99.90;;;;;;4963890;29;20035;-82
2022/06/03 04:16:24;;;;;;;3.75;2.72;;;16.30;99.90;;;;;;4958852;29;20544;-83
2022/06/03 04:19:21;;;;;;;5.95;3.10;;;16.30;99.90;;;;;;4963872;29;20115;-83
2022/06/03 04:22:05;;;;;;;7.63;3.10;;;16.40;99.90;;;;;;4956918;29;20465;-83
2022/06/03 04:24:38;;;;;;;7.27;3.10;;;16.50;99.90;;;;;;4959249;28;20115;-81
2022/06/03 04:27:22;;;;;;;5.15;3.30;;;16.50;99.90;;;;;;4965897;28;20070;-82
2022/06/03 04:30:25;;;;;;;6.93;3.08;;;16.60;99.90;;;;;;4960826;29;20039;-82
2022/06/03 04:33:03;;;;;;;4.40;3.17;;;16.80;99.90;;;;;;4959280;29;20031;-83
2022/06/03 04:35:46;;;;;;;7.00;3.45;;;16.90;99.90;;;;;;4971803;29;20042;-84
2022/06/03 04:38:30;;;;;;;11.00;3.38;;;17.00;99.90;;;;;;4948726;29;20023;-84
2022/06/03 04:41:26;;;;;;;4.95;3.25;;;17.20;99.90;;;;;;4959484;29;20031;-86
2022/06/03 04:44:24;;;;;;;4.90;3.50;;;17.30;99.90;;;;;;4977896;28;20045;-83
2022/06/03 04:46:59;;;;;;;7.05;3.42;;;17.60;99.90;;;;;;4969237;28;20034;-86
2022/06/03 04:49:43;;;;;;;;;;;18.00;99.90;;;;;;4967851;29;20043;-82
2022/06/03 04:52:47;;;;;;;6.93;3.47;;;18.10;99.90;;;;;;4973454;28;19990;-84
2022/06/03 04:55:31;;;;;;;6.40;3.13;;;18.30;99.90;;;;;;4967000;29;20031;-85
2022/06/03 04:58:28;;;;;;;11.27;3.50;;;18.30;99.90;;;;;;4966896;29;20459;-81
2022/06/03 05:01:12;;;;;;;16.83;4.55;;;18.20;99.90;;;;;;4951130;29;20138;-82
2022/06/03 05:03:55;;;;;;;;;;;18.40;99.90;;;;;;4963774;29;20368;-82
2022/06/03 05:06:53;;;;;;;8.50;3.65;;;18.70;99.90;;;;;;4965261;28;19910;-83
2022/06/03 05:09:58;;;;;;;6.80;3.80;;;19.10;99.90;;;;;;4896867;28;20499;-82
2022/06/03 05:12:46;;;;;;;11.73;4.03;;;19.20;99.90;;;;;;4956998;29;20467;-83
2022/06/03 05:15:49;;;;;;;9.30;3.28;;;19.20;99.90;;;;;;4960590;29;20386;-83
2022/06/03 05:21:31;;;;;;;6.68;3.63;;;19.30;99.90;;;;;;5815163;23;20058;-90
2022/06/03 05:29:29;;;;;;;6.65;4.13;;;19.40;99.90;;;;;;5166432;23;20102;-91
2022/06/03 05:32:35;;;;;;;7.85;3.90;;;19.60;99.90;;;;;;4999462;28;20042;-90
2022/06/03 05:35:33;;;;;;;6.70;4.10;;;19.90;99.90;;;;;;5023121;23;20036;-90
2022/06/03 05:38:44;;;;;;;8.48;3.75;;;20.00;99.90;;;;;;4924040;29;20047;-89
2022/06/03 05:43:59;;;;;;;8.95;4.55;;;20.40;99.90;;;;;;4974186;28;20047;-89
2022/06/03 05:46:51;;;;;;;7.80;3.67;;;20.70;99.90;;;;;;4957119;29;20043;-91
2022/06/03 05:49:33;;;;;;;14.38;4.60;;;20.80;99.90;;;;;;4960364;28;20020;-89
2022/06/03 05:52:27;;;;;;;14.52;6.72;;;21.00;99.90;;;;;;4960933;28;20020;-86
2022/06/03 05:55:15;;;;;;;4.90;2.88;;;21.10;99.90;;;;;;4944547;28;20051;-88
2022/06/03 05:58:06;;;;;;;7.95;3.72;;;21.20;99.90;;;;;;4953951;28;20024;-89
2022/06/03 06:00:41;;;;;;;6.85;3.95;;;21.20;99.90;;;;;;4952207;28;20028;-87
2022/06/03 06:03:34;;;;;;;9.02;3.78;;;21.10;99.90;;;;;;4956934;28;20026;-89
2022/06/03 06:06:38;;;;;;;4.15;2.70;;;21.00;99.90;;;;;;4962390;28;20015;-86
2022/06/03 06:09:20;;;;;;;3.60;2.60;;;21.20;99.90;;;;;;4973048;28;20034;-86
2022/06/03 06:12:11;;;;;;;6.53;2.80;;;21.30;99.90;;;;;;4980731;28;20027;-86
2022/06/03 06:14:46;;;;;;;3.13;2.50;;;21.10;99.90;;;;;;4970740;28;20042;-88
2022/06/03 06:17:35;;;;;;;;;;;21.10;99.90;;;;;;4961706;28;20015;-87
2022/06/03 06:23:18;;;;;;;4.15;2.90;;;21.30;99.90;;;;;;4993955;28;20046;-87
2022/06/03 06:26:00;;;;;;;5.57;2.45;;;21.10;99.90;;;;;;4997718;28;20102;-87
2022/06/03 06:29:06;;;;;;;5.13;2.47;;;21.10;99.90;;;;;;4996107;28;20019;-88
2022/06/03 06:31:50;;;;;;;5.82;2.92;;;21.20;99.90;;;;;;4972557;28;20053;-87
2022/06/03 06:34:33;;;;;;;3.40;2.75;;;21.30;99.90;;;;;;4984680;28;20030;-88
2022/06/03 06:37:17;;;;;;;;;;;21.20;99.90;;;;;;4975483;28;20038;-87
2022/06/03 06:39:58;;;;;;;2.85;2.60;;;21.40;99.90;;;;;;4959741;29;19899;-87
2022/06/03 06:42:56;;;;;;;14.75;3.30;;;21.60;99.90;;;;;;4970996;28;20027;-88
2022/06/03 06:45:22;;;;;;;6.70;2.30;;;21.40;99.90;;;;;;4970218;28;20019;-86
2022/06/03 06:48:00;;;;;;;5.50;2.72;;;21.60;99.90;;;;;;4993629;28;20030;-87
2022/06/03 06:50:40;;;;;;;9.80;2.70;;;21.70;99.90;;;;;;4977809;28;20098;-86
2022/06/03 06:53:28;;;;;;;6.00;2.72;;;21.80;99.90;;;;;;4976852;28;20239;-88
2022/06/03 06:56:04;;;;;;;5.43;3.00;;;21.90;99.80;;;;;;4977226;28;20055;-87
2022/06/03 06:59:01;;;;;;;4.28;2.65;;;21.90;99.50;;;;;;4985955;28;20058;-89
2022/06/03 07:01:34;;;;;;;8.25;4.65;;;21.90;99.90;;;;;;4968619;28;20058;-90
2022/06/03 07:04:05;;;;;;;5.45;2.90;;;22.00;99.30;;;;;;4970711;29;20059;-90
2022/06/03 07:06:41;;;;;;;11.57;2.70;;;22.10;99.70;;;;;;4970174;28;20043;-88
2022/06/03 07:09:10;;;;;;;4.50;2.55;;;22.20;99.30;;;;;;4965334;29;20028;-89
2022/06/03 07:11:50;;;;;;;6.55;2.75;;;22.30;99.10;;;;;;4957029;29;20023;-89
2022/06/03 07:14:26;;;;;;;3.40;2.33;;;22.50;99.10;;;;;;4974861;28;20636;-90
2022/06/03 07:20:27;;;;;;;5.15;2.40;;;22.60;98.20;;;;;;4975418;28;20095;-88
2022/06/03 07:23:04;;;;;;;4.82;2.38;;;22.60;98.90;;;;;;4971659;28;20055;-88
2022/06/03 07:25:52;;;;;;;4.47;2.38;;;22.70;98.10;;;;;;4975085;28;20031;-91
2022/06/03 07:28:28;;;;;;;4.30;2.50;;;22.80;98.40;;;;;;4958729;28;20110;-89
2022/06/03 07:31:04;;;;;;;9.68;4.60;;;22.80;98.30;;;;;;4968749;29;20050;-90
2022/06/03 07:33:30;;;;;;;2.78;2.53;;;22.90;98.30;;;;;;4973577;28;20043;-90
2022/06/03 07:36:03;;;;;;;5.22;2.50;;;22.90;98.40;;;;;;4974229;28;20072;-86
2022/06/03 07:38:45;;;;;;;3.88;2.70;;;22.80;98.20;;;;;;4969018;29;20051;-89
2022/06/03 07:41:29;;;;;;;7.20;3.03;;;22.80;99.00;;;;;;4975899;28;20034;-89
2022/06/03 07:44:11;;;;;;;5.03;2.40;;;22.90;98.70;;;;;;4971214;28;20035;-88
2022/06/03 07:47:00;;;;;;;7.10;3.05;;;23.00;98.70;;;;;;4984441;28;20018;-89
2022/06/03 07:49:31;;;;;;;6.10;2.90;;;23.00;98.30;;;;;;4976191;23;20060;-80
2022/06/03 07:52:07;;;;;;;8.93;3.05;;;22.80;98.10;;;;;;4966262;28;20031;-79
2022/06/03 07:54:40;;;;;;;2.70;2.25;;;22.80;98.60;;;;;;4960230;28;20031;-79
2022/06/03 07:57:22;;;;;;;3.63;2.40;;;22.90;98.20;;;;;;4964787;28;20018;-79
2022/06/03 07:59:50;;;;;;;5.10;2.75;;;23.10;98.30;;;;;;4947844;29;20032;-81
2022/06/03 08:02:17;;;;;;;4.97;2.70;;;23.20;98.00;;;;;;4947711;29;20027;-79
2022/06/03 08:04:46;;;;;;;5.28;2.67;;;23.30;98.00;;;;;;4949669;29;20028;-78
2022/06/03 08:12:59;;;;;;;3.50;2.80;;;23.40;98.00;;;;;;4949536;29;20465;-80
2022/06/03 08:15:35;;;;;;;7.43;2.67;;;23.50;97.80;;;;;;4945516;29;20012;-81
2022/06/03 08:18:05;;;;;;;6.63;2.38;;;23.50;97.60;;;;;;4944818;29;20040;-79
2022/06/03 08:20:53;;;;;;;6.90;2.40;;;23.50;97.20;;;;;;4948672;29;20051;-79
2022/06/03 08:23:22;;;;;;;5.88;2.40;;;23.50;97.50;;;;;;4945443;29;20392;-79
2022/06/03 08:25:52;;;;;;;4.85;2.58;;;23.40;96.80;;;;;;4951713;29;20105;-79
2022/06/03 08:28:21;;;;;;;6.28;3.00;;;23.40;96.80;;;;;;4948745;29;20039;-79
2022/06/03 08:30:50;;;;;;;8.57;2.88;;;23.50;96.90;;;;;;4935890;29;20028;-78
2022/06/03 08:33:22;;;;;;;4.07;2.60;;;23.50;97.10;;;;;;4941626;29;20028;-79
2022/06/03 08:35:48;;;;;;;3.72;2.50;;;23.60;97.40;;;;;;4943873;29;20032;-80
2022/06/03 08:38:19;;;;;;;5.30;2.28;;;23.70;97.20;;;;;;4944204;29;20087;-80
2022/06/03 08:41:22;;;;;;;6.15;2.78;;;23.70;97.20;;;;;;4945560;29;20403;-79
2022/06/03 08:43:57;;;;;;;7.20;2.70;;;23.80;97.20;;;;;;4945311;29;20039;-80
2022/06/03 08:46:34;;;;;;;7.47;2.75;;;23.90;96.40;;;;;;4953511;29;20038;-79
2022/06/03 08:49:04;;;;;;;7.28;2.70;;;23.90;96.50;;;;;;4947569;29;20468;-81
2022/06/03 08:51:45;;;;;;;6.47;2.58;;;24.00;96.60;;;;;;4943476;29;20032;-81
2022/06/03 08:54:50;;;;;;;9.15;2.97;;;24.00;96.30;;;;;;4965260;29;20055;-78
2022/06/03 08:57:23;;;;;;;5.28;2.25;;;24.00;96.40;;;;;;4947189;29;20048;-79
2022/06/03 09:00:00;;;;;;;5.65;2.50;;;24.00;96.20;;;;;;4970439;29;20052;-78
2022/06/03 09:02:59;;;;;;;7.45;2.60;;;24.00;96.30;;;;;;4949231;29;20087;-79
2022/06/03 09:05:32;;;;;;;3.33;2.45;;;24.00;96.10;;;;;;4971707;29;20095;-78
2022/06/03 09:08:24;;;;;;;7.05;2.60;;;24.00;96.10;;;;;;4966769;29;20098;-78
2022/06/03 09:11:01;;;;;;;5.45;2.67;;;24.10;95.60;;;;;;4927382;29;20043;-80
2022/06/03 09:13:52;;;;;;;8.85;2.50;;;24.20;95.90;;;;;;4939778;29;20040;-79
2022/06/03 09:16:20;;;;;;;4.13;2.55;;;24.20;95.90;;;;;;4929926;29;20035;-80
2022/06/03 09:18:57;;;;;;;4.88;2.50;;;24.30;95.30;;;;;;4937271;29;20047;-79
2022/06/03 09:21:31;;;;;;;4.45;3.03;;;24.40;95.50;;;;;;4940745;29;20064;-80
2022/06/03 09:24:21;;;;;;;7.03;3.30;;;24.40;95.50;;;;;;4953394;29;20534;-79
2022/06/03 09:26:54;;;;;;;6.28;2.58;;;24.40;95.50;;;;;;4942299;29;20036;-79
2022/06/03 09:29:21;;;;;;;5.63;2.40;;;24.40;95.70;;;;;;4940411;29;20447;-80
2022/06/03 09:31:54;;;;;;;4.18;2.10;;;24.40;95.00;;;;;;4941109;29;20036;-79
2022/06/03 09:34:31;;;;;;;6.07;2.30;;;24.40;94.30;;;;;;4940470;29;20091;-79
2022/06/03 09:36:59;;;;;;;4.53;2.50;;;24.60;93.70;;;;;;4944377;29;20038;-80
2022/06/03 09:39:25;;;;;;;10.38;2.28;;;24.90;92.60;;;;;;4948603;29;20095;-83
2022/06/03 09:41:57;;;;;;;12.02;2.47;;;25.10;91.80;;;;;;4942891;29;20027;-83
2022/06/03 09:44:25;;;;;;;5.35;2.20;;;25.40;92.00;;;;;;4948748;29;20040;-84
2022/06/03 09:47:04;;;;;;;4.50;2.10;;;25.80;91.50;;;;;;4948610;29;20031;-83
2022/06/03 09:49:32;;;;;;;5.57;2.10;;;26.20;91.40;;;;;;4962360;29;20040;-83
2022/06/03 09:52:00;;;;;;;4.82;2.70;;;26.70;91.00;;;;;;4948338;29;20028;-81
2022/06/03 09:54:33;;;;;;;5.82;2.40;;;27.10;90.70;;;;;;4940987;29;20032;-83
2022/06/03 09:57:26;;;;;;;6.23;2.50;;;27.60;89.80;;;;;;4943513;29;20035;-83
2022/06/03 10:00:03;;;;;;;4.88;2.30;;;28.00;88.60;;;;;;4955184;29;20051;-84
2022/06/03 10:02:38;;;;;;;6.18;2.03;;;28.30;86.90;;;;;;4944602;29;20103;-85
2022/06/03 10:05:06;;;;;;;4.18;2.05;;;28.90;86.10;;;;;;4946486;29;20036;-82
2022/06/03 10:07:33;;;;;;;3.47;1.92;;;29.30;84.90;;;;;;4963569;29;20043;-83
2022/06/03 10:12:49;;;;;;;5.97;3.53;;;30.70;82.00;;;;;;4948339;29;20095;-81
2022/06/03 10:15:37;;;;;;;8.90;2.55;;;30.10;81.80;;;;;;4944735;29;20099;-81
2022/06/03 10:18:34;;;;;;;4.57;2.35;;;30.20;81.60;;;;;;4945615;29;20032;-81
2022/06/03 10:21:19;;;;;;;8.13;2.80;;;30.50;81.10;;;;;;4941148;29;20024;-85
2022/06/03 10:23:55;;;;;;;6.60;2.53;;;31.60;79.50;;;;;;4944726;29;20119;-82
2022/06/03 10:26:26;;;;;;;2.42;2.10;;;32.40;77.90;;;;;;4951624;29;20043;-82
2022/06/03 10:28:56;;;;;;;6.05;2.28;;;33.10;76.50;;;;;;4952223;29;20019;-82
2022/06/03 10:31:29;;;;;;;6.28;2.10;;;33.40;74.90;;;;;;4965228;29;20032;-79
2022/06/03 10:34:00;;;;;;;2.42;1.83;;;33.90;73.30;;;;;;4949891;29;20044;-81
2022/06/03 10:36:34;;;;;;;4.88;2.65;;;34.20;72.70;;;;;;4953529;29;20091;-81
2022/06/03 10:39:00;;;;;;;8.70;2.23;;;34.40;72.00;;;;;;4950719;29;20030;-79
2022/06/03 10:41:38;;;;;;;3.33;1.80;;;34.20;71.10;;;;;;4943959;29;20279;-82
2022/06/03 10:44:15;;;;;;;5.50;2.33;;;34.60;70.30;;;;;;4942734;29;20027;-80
2022/06/03 10:47:06;;;;;;;3.17;2.10;;;35.90;69.30;;;;;;4935408;29;20047;-81
2022/06/03 10:49:36;;;;;;;8.32;2.40;;;36.30;67.30;;;;;;4950982;29;20038;-80
2022/06/03 11:03:28;;;;;;;5.15;2.20;;;35.10;67.20;;;;;;4951160;29;20028;-79
2022/06/03 11:05:54;;;;;;;5.78;2.28;;;34.50;67.40;;;;;;4941909;29;20023;-83
2022/06/03 11:08:21;;;;;;;3.53;2.60;;;34.60;67.40;;;;;;4941638;29;20138;-80
2022/06/03 11:10:50;;;;;;;6.65;2.90;;;34.80;67.80;;;;;;4942750;29;20115;-82
2022/06/03 11:13:31;;;;;;;13.70;3.00;;;35.60;66.70;;;;;;4942090;29;20115;-81
2022/06/03 11:16:13;;;;;;;3.67;2.30;;;35.70;66.30;;;;;;4941361;29;20019;-83
2022/06/03 11:18:41;;;;;;;4.47;2.13;;;36.40;65.60;;;;;;4939262;29;20075;-81
2022/06/03 11:21:28;;;;;;;4.13;2.08;;;36.10;64.70;;;;;;4937969;29;20526;-80
2022/06/03 11:23:59;;;;;;;4.03;2.10;;;35.40;65.40;;;;;;4933656;29;20127;-81
2022/06/03 11:26:38;;;;;;;3.53;2.50;;;34.80;66.00;;;;;;4958920;29;20039;-80
2022/06/03 11:29:13;;;;;;;6.25;2.90;;;35.20;65.60;;;;;;4947211;29;20035;-81
2022/06/03 11:31:46;;;;;;;4.80;2.80;;;35.50;65.60;;;;;;4942377;29;20035;-82
2022/06/03 11:34:26;;;;;;;3.97;2.65;;;36.60;64.80;;;;;;4939906;29;20118;-81
2022/06/03 11:36:56;;;;;;;4.97;2.60;;;36.40;64.50;;;;;;4940643;29;20411;-81
2022/06/03 11:39:30;;;;;;;4.03;2.10;;;36.60;64.50;;;;;;4939865;29;20024;-80
2022/06/03 11:42:11;;;;;;;3.20;2.13;;;36.50;63.20;;;;;;4954993;29;20027;-81
2022/06/03 11:44:43;;;;;;;11.25;2.72;;;36.80;63.40;;;;;;4942644;29;20063;-81
2022/06/03 11:47:42;;;;;;;12.30;5.75;;;37.10;63.40;;;;;;4937548;29;20032;-80
2022/06/03 11:50:09;;;;;;;2.72;2.00;;;37.40;62.60;;;;;;4940768;29;20119;-80
2022/06/03 11:52:36;;;;;;;4.60;2.20;;;37.40;62.40;;;;;;4941898;29;20031;-81
2022/06/03 11:55:03;;;;;;;6.10;2.47;;;36.90;62.40;;;;;;4944860;29;20473;-80
2022/06/03 11:57:28;;;;;;;3.67;1.90;;;36.00;62.70;;;;;;4947642;29;20019;-82
2022/06/03 12:00:22;;;;;;;6.25;2.28;;;35.60;62.90;;;;;;4938007;29;20047;-79
2022/06/03 12:03:23;;;;;;;5.03;2.38;;;35.40;63.30;;;;;;4940640;29;20036;-80
2022/06/03 12:05:57;;;;;;;6.13;2.22;;;35.60;63.60;;;;;;4940973;29;20036;-80
2022/06/03 12:08:29;;;;;;;10.98;2.28;;;36.30;63.10;;;;;;4954853;28;20028;-81
2022/06/03 12:14:28;;;;;;;4.88;2.17;;;35.90;63.00;;;;;;4928244;29;20496;-81
2022/06/03 12:17:25;;;;;;;6.28;2.55;;;36.30;62.80;;;;;;4939950;29;20039;-80
2022/06/03 12:19:53;;;;;;;4.32;2.25;;;36.10;62.90;;;;;;4944412;29;20051;-79
2022/06/03 12:22:31;;;;;;;3.72;2.10;;;36.40;63.20;;;;;;4952198;29;20019;-80
2022/06/03 12:24:59;;;;;;;5.47;2.78;;;36.50;62.70;;;;;;4955596;29;20041;-81
2022/06/03 12:27:38;;;;;;;4.93;2.25;;;36.40;62.70;;;;;;4952550;29;20023;-79
2022/06/03 12:30:14;;;;;;;5.22;1.98;;;36.30;63.20;;;;;;4950212;29;20031;-78
2022/06/03 12:32:52;;;;;;;4.55;2.30;;;36.50;63.30;;;;;;4937366;29;20327;-81
2022/06/03 12:35:44;;;;;;;3.58;1.80;;;37.40;62.70;;;;;;4939730;29;20024;-79
2022/06/03 12:38:19;;;;;;;6.47;2.15;;;37.90;61.40;;;;;;4944702;29;20035;-79
2022/06/03 12:40:53;;;;;;;2.85;2.17;;;37.80;61.30;;;;;;4948425;29;20866;-79
2022/06/03 12:43:46;;;;;;;5.95;2.13;;;36.70;63.10;;;;;;4950401;29;20059;-79
2022/06/03 12:46:44;;;;;;;4.93;2.33;;;36.30;62.90;;;;;;4946123;29;20051;-78
2022/06/03 12:49:39;;;;;;;3.58;2.22;;;36.10;63.80;;;;;;4942727;29;20051;-78
2022/06/03 12:52:08;;;;;;;;;;;36.30;63.70;;;;;;4937227;29;20472;-80
2022/06/03 12:54:46;;;;;;;10.57;2.60;;;35.50;63.70;;;;;;4930252;29;19953;-79
2022/06/03 12:57:37;;;;;;;7.78;2.17;;;34.70;65.90;;;;;;4942346;29;20039;-78
2022/06/03 13:00:07;;;;;;;5.35;2.33;;;34.40;65.90;;;;;;4941574;29;20487;-82
2022/06/03 13:02:46;;;;;;;5.22;2.72;;;34.60;65.50;;;;;;4943662;29;20027;-81
2022/06/03 13:05:27;;;;;;;7.13;2.78;;;34.50;65.80;;;;;;4951335;29;20112;-79
2022/06/03 13:08:22;;;;;;;4.53;2.72;;;34.50;66.20;;;;;;4941632;29;20479;-81
2022/06/03 13:10:57;;;;;;;;;;;35.10;65.30;;;;;;4910017;29;20411;-81
2022/06/03 13:13:34;;;;;;;12.68;2.60;;;34.70;65.90;;;;;;4944356;29;20299;-80
2022/06/03 13:16:23;;;;;;;5.95;2.50;;;34.80;66.00;;;;;;4940191;29;20143;-80
2022/06/03 13:18:55;;;;;;;9.15;2.65;;;35.20;65.80;;;;;;4939491;29;20035;-80
2022/06/03 13:21:21;;;;;;;4.00;2.80;;;35.70;65.30;;;;;;4938209;29;20122;-81
2022/06/03 13:23:59;;;;;;;3.75;2.35;;;36.10;64.30;;;;;;4941556;29;20051;-77
2022/06/03 13:26:25;;;;;;;5.03;2.38;;;35.90;64.20;;;;;;4941993;29;20031;-80
2022/06/03 13:28:59;;;;;;;3.45;2.38;;;35.80;64.50;;;;;;4927199;29;20023;-80
2022/06/03 13:31:41;;;;;;;3.92;2.38;;;36.50;64.00;;;;;;4941996;29;20155;-81
2022/06/03 13:34:12;;;;;;;8.50;3.17;;;36.10;63.80;;;;;;4948610;29;20104;-79
2022/06/03 13:36:50;;;;;;;6.97;2.92;;;35.80;64.60;;;;;;4954016;29;20192;-79
2022/06/03 13:39:28;;;;;;;4.95;2.20;;;35.10;64.90;;;;;;4960690;29;20035;-80
2022/06/03 13:45:02;;;;;;;4.70;2.50;;;34.40;65.60;;;;;;4941283;29;20035;-80
2022/06/03 13:47:46;;;;;;;3.75;2.10;;;34.00;66.20;;;;;;4942707;29;20400;-81
2022/06/03 13:50:17;;;;;;;4.50;2.72;;;33.40;67.00;;;;;;4927359;29;20091;-78
2022/06/03 13:52:46;;;;;;;4.72;2.78;;;33.60;67.10;;;;;;4947482;29;20118;-78
2022/06/03 13:55:23;;;;;;;4.90;2.30;;;33.60;67.30;;;;;;4949044;29;20034;-79
2022/06/03 13:58:09;;;;;;;4.25;2.33;;;34.00;67.20;;;;;;4948165;29;20079;-79
2022/06/03 14:00:50;;;;;;;4.68;2.58;;;34.20;66.10;;;;;;4948101;29;20095;-80
2022/06/03 14:08:43;;;;;;;13.70;2.90;;;33.30;67.40;;;;;;4553694;23;20050;-84
2022/06/03 14:11:31;;;;;;;10.20;3.72;;;32.60;68.20;;;;;;4963381;28;20047;-92
2022/06/03 14:14:03;;;;;;;3.47;2.75;;;32.60;68.20;;;;;;4963182;29;20077;-90
2022/06/03 14:16:44;;;;;;;9.73;2.22;;;32.60;68.40;;;;;;5124271;23;20050;-88
2022/06/03 14:19:10;;;;;;;7.47;2.33;;;33.10;67.80;;;;;;4978362;28;20063;-90
2022/06/03 14:21:49;;;;;;;6.75;2.50;;;33.10;67.50;;;;;;4979303;28;20035;-89
2022/06/03 14:24:36;;;;;;;3.83;2.65;;;33.50;67.20;;;;;;4959110;29;20085;-87
2022/06/03 14:27:16;;;;;;;6.15;2.72;;;33.80;67.00;;;;;;4959657;29;20034;-87
2022/06/03 14:29:49;;;;;;;3.60;2.60;;;34.30;66.70;;;;;;4958629;29;20066;-87
2022/06/03 14:32:21;;;;;;;3.80;2.30;;;34.20;66.30;;;;;;4959851;29;20090;-88
2022/06/03 14:35:09;;;;;;;3.70;2.40;;;34.20;66.00;;;;;;4959357;29;20059;-88
2022/06/03 14:38:05;;;;;;;7.40;2.30;;;34.20;66.60;;;;;;5247144;23;20031;-90
2022/06/03 14:40:34;;;;;;;5.78;2.58;;;34.70;65.90;;;;;;4993204;28;20026;-88
2022/06/03 14:43:02;;;;;;;4.50;2.38;;;34.80;65.90;;;;;;4987984;28;20031;-88
2022/06/03 14:45:33;;;;;;;8.00;2.78;;;35.10;65.40;;;;;;4974911;28;20034;-91
2022/06/03 14:48:07;;;;;;;5.65;2.47;;;34.40;66.00;;;;;;4973802;29;20094;-86
2022/06/03 14:50:38;;;;;;;3.92;2.30;;;33.80;66.90;;;;;;4971187;29;20035;-88
2022/06/03 14:53:19;;;;;;;6.05;2.80;;;33.40;67.30;;;;;;4971736;29;20019;-89
2022/06/03 14:55:56;;;;;;;4.05;2.60;;;33.20;67.50;;;;;;4974926;28;20083;-91